Latest Coastal Weather Observations for Maningrida Airport

IDD60701

Issued at 11:31 pm CST Thursday 30 July 2015 (issued every 10 minutes, with the page automatically refreshed every 10 minutes)

About coastal observations | Map of coastal stations | Coastal observations for NT | Marine services | Other Formats
Station Details ID: 014405 Name: MANINGRIDA AIRPORT Lat: -12.06 Lon: 134.23 Height: 28.1 m
Data from the previous 72 hours. | See also: Recent months at Maningrida Airport
Date/Time
CST
Temp

°C
Wind Pressure Rain
since 9am
mm
Weather Cloud Vis
km
Sea
Height
m
Swell
Dir
 
Speed
knots
Gust
knots
hPa Trend Height
m
Period
s
Dir
30/11:30pm 24.1 NE 10 13 1016.2 - 0.0 - - 10 - - - -
30/11:00pm 24.5 NE 11 15 1016.3 - 0.0 - - 10 - - - -
30/10:30pm 24.9 NE 11 16 1016.2 - 0.0 - - 10 - - - -
30/10:00pm 25.0 NE 11 16 1016.0 - 0.0 - - 10 - - - -
30/09:30pm 25.1 NE 10 14 1015.8 - 0.0 - - 10 - - - -
30/09:00pm 25.4 NE 9 12 1015.3 - 0.0 - - 10 - - - -
30/08:30pm 25.7 ENE 9 14 1015.0 - 0.0 - - 10 - - - -
30/08:00pm 24.3 NE 5 6 1014.6 - 0.0 - - 10 - - - -
30/07:30pm 25.0 NNE 4 5 1014.2 - 0.0 - - 10 - - - -
30/07:00pm 25.6 NNE 5 6 1013.8 - 0.0 - - 10 - - - -
30/06:30pm 26.4 NNE 5 7 1013.5 - 0.0 - - 10 - - - -
30/06:00pm 27.7 NNE 6 9 1013.1 - 0.0 - - 10 - - - -
30/05:30pm 29.1 NNE 6 8 1012.7 - 0.0 - - 10 - - - -
30/05:00pm 31.4 NE 11 15 1012.5 - 0.0 - - 10 - - - -
30/04:30pm 31.9 ENE 11 16 1012.3 - 0.0 - - 10 - - - -
30/04:00pm 31.7 NE 11 17 1012.1 - 0.0 - - 10 - - - -
30/03:30pm 31.7 NE 11 17 1012.4 - 0.0 - - 10 - - - -
30/03:00pm 32.3 NE 9 13 1012.6 - 0.0 - - 10 - - - -
30/02:30pm 31.8 NE 13 18 1013.1 - 0.0 - - 10 - - - -
30/02:00pm 31.1 NE 14 18 1013.6 - 0.0 - - 10 - - - -
30/01:30pm 31.3 NE 13 20 1014.1 - 0.0 - - 10 - - - -
30/01:00pm 30.2 NE 14 20 1014.7 - 0.0 - - 10 - - - -
30/12:30pm 30.5 NE 16 22 1015.4 - 0.0 - - 10 - - - -
30/12:00pm 30.3 NE 13 21 1015.9 - 0.0 - - 10 - - - -
30/11:30am 29.7 NE 16 23 1016.2 - 0.0 - Partly cloudy 10 - - - -
30/11:00am 28.1 NE 13 22 1016.4 - 0.0 - Partly cloudy 10 - - - -
30/10:30am 28.0 NE 15 21 1016.7 - 0.0 - - 10 - - - -
30/10:00am 27.3 NE 11 16 1016.8 - 0.0 - - 10 - - - -
30/09:30am 26.5 NE 12 18 1016.7 - 0.0 - - 10 - - - -
30/09:00am 24.9 NE 11 16 1016.7 - 0.0 - - 10 - - - -
30/08:30am 23.6 ENE 11 15 1016.6 - 0.0 - - 10 - - - -
30/08:00am 22.2 ENE 11 15 1016.5 - 0.0 - - 10 - - - -
30/07:30am 21.2 ENE 12 15 1016.1 - 0.0 - - 10 - - - -
30/07:00am 20.6 ENE 8 14 1015.9 - 0.0 - - 10 - - - -
30/06:30am 20.6 ENE 8 11 1015.6 - 0.0 - - 10 - - - -
30/06:00am 20.7 ENE 8 10 1015.5 - 0.0 - - 10 - - - -
30/05:30am 21.0 ENE 10 13 1015.2 - 0.0 - - 10 - - - -
30/05:00am 20.9 ENE 8 11 1015.2 - 0.0 - - 10 - - - -
30/04:30am 21.0 ENE 7 11 1015.2 - 0.0 - - 10 - - - -
30/04:00am 21.2 ENE 6 9 1015.5 - 0.0 - - 10 - - - -
30/03:30am 21.4 ENE 5 8 1015.8 - 0.0 - - 10 - - - -
30/03:00am 21.8 ENE 7 11 1015.9 - 0.0 - - 10 - - - -
30/02:30am 22.0 ENE 8 11 1016.2 - 0.0 - - 10 - - - -
30/02:00am 22.3 ENE 7 11 1016.5 - 0.0 - - 10 - - - -
30/01:30am 22.3 ENE 7 9 1016.6 - 0.0 - - 10 - - - -
30/01:00am 22.7 NE 9 13 1016.9 - 0.0 - - 10 - - - -
30/12:30am 23.1 NE 9 13 1017.0 - 0.0 - - 10 - - - -
30/12:00am 23.3 NE 8 11 1017.2 - 0.0 - - 10 - - - -
 
Date/Time
CST
Temp

°C
Wind Pressure Rain
since 9am
mm
Weather Cloud Vis
km
Sea
Height
m
Swell
Dir
 
Speed
knots
Gust
knots
hPa Trend Height
m
Period
s
Dir
29/11:30pm 23.8 NE 8 11 1017.0 - 0.0 - - 10 - - - -
29/11:00pm 24.1 NE 8 11 1017.1 - 0.0 - - 10 - - - -
29/10:30pm 24.6 NE 8 11 1017.1 - 0.0 - - 10 - - - -
29/10:00pm 25.1 NE 9 12 1017.0 - 0.0 - - 10 - - - -
29/09:30pm 25.5 NE 9 14 1016.6 - 0.0 - - 10 - - - -
29/09:00pm 25.9 NE 9 12 1016.4 - 0.0 - - 10 - - - -
29/08:30pm 26.4 NE 10 13 1016.1 - 0.0 - - 10 - - - -
29/08:00pm 26.6 NE 8 12 1015.8 - 0.0 - - 10 - - - -
29/07:30pm 26.9 NE 9 12 1015.3 - 0.0 - - 10 - - - -
29/07:00pm 27.2 NE 8 11 1014.8 - 0.0 - - 10 - - - -
29/06:30pm 27.9 NE 8 11 1014.4 - 0.0 - - 10 - - - -
29/06:00pm 28.7 NE 8 11 1014.1 - 0.0 - Mostly clear 10 - - - -
29/05:30pm 29.2 NE 9 13 1013.9 - 0.0 - Cloudy 10 - - - -
29/05:00pm 29.6 NE 7 10 1013.6 - 0.0 - Partly cloudy 10 - - - -
29/04:30pm 29.8 NE 10 16 1013.4 - 0.0 - Cloudy 10 - - - -
29/04:00pm 30.5 NE 12 20 1013.3 - 0.0 - Partly cloudy 10 - - - -
29/03:30pm 31.1 NE 13 17 1013.2 - 0.0 - Partly cloudy 10 - - - -
29/03:00pm 31.3 NE 11 17 1013.4 - 0.0 - Mostly clear 10 - - - -
29/02:30pm 32.0 NE 13 19 1013.6 - 0.0 - - 10 - - - -
29/02:00pm 30.9 NE 14 19 1013.9 - 0.0 - - 10 - - - -
29/01:30pm 31.0 NE 13 19 1014.3 - 0.0 - - 10 - - - -
29/01:00pm 30.5 NE 12 20 1014.9 - 0.0 - - 10 - - - -
29/12:30pm 30.3 NE 13 18 1015.4 - 0.0 - - 10 - - - -
29/12:00pm 30.1 ENE 14 20 1016.0 - 0.0 - - 10 - - - -
29/11:30am 29.2 NE 14 22 1016.6 - 0.0 - - 10 - - - -
29/11:00am 28.3 NE 13 18 1017.0 - 0.0 - - 10 - - - -
29/10:30am 27.2 NE 13 18 1017.2 - 0.0 - - 10 - - - -
29/10:00am 26.5 NE 14 21 1017.4 - 0.0 - - 10 - - - -
29/09:30am 25.3 ENE 16 23 1017.4 - 0.0 - - 10 - - - -
29/09:00am 24.3 NE 13 21 1017.4 - 0.0 - - 10 - - - -
29/08:30am 23.1 NE 12 16 1017.1 - 0.0 - - 10 - - - -
29/08:00am 21.9 ENE 10 13 1017.0 - 0.0 - - 10 - - - -
29/07:30am 20.6 ENE 8 12 1016.8 - 0.0 - - 10 - - - -
29/07:00am 20.0 ENE 8 11 1016.5 - 0.0 - - 10 - - - -
29/06:30am 20.0 ENE 8 11 1016.2 - 0.0 - - 10 - - - -
29/06:00am 19.7 ENE 7 10 1016.0 - 0.0 - - 10 - - - -
29/05:30am 19.8 ENE 7 9 1015.8 - 0.0 - - 10 - - - -
29/05:00am 19.5 ENE 6 10 1015.7 - 0.0 - - 10 - - - -
29/04:30am 20.0 ENE 7 11 1015.7 - 0.0 - - 10 - - - -
29/04:00am 20.4 ENE 7 10 1015.8 - 0.0 - - 10 - - - -
29/03:30am 20.7 ENE 8 11 1016.0 - 0.0 - - 10 - - - -
29/03:00am 20.5 ENE 7 10 1016.3 - 0.0 - - 10 - - - -
29/02:30am 20.6 ENE 7 9 1016.6 - 0.0 - - 10 - - - -
29/02:00am 21.0 ENE 7 11 1016.9 - 0.0 - - 10 - - - -
29/01:30am 21.4 ENE 8 12 1017.0 - 0.0 - - 10 - - - -
29/01:00am 22.0 ENE 10 14 1017.1 - 0.0 - - 10 - - - -
29/12:30am 22.5 ENE 12 16 1017.0 - 0.0 - - 10 - - - -
29/12:00am 22.8 ENE 11 16 1016.8 - 0.0 - - 10 - - - -
 
Date/Time
CST
Temp

°C
Wind Pressure Rain
since 9am
mm
Weather Cloud Vis
km
Sea
Height
m
Swell
Dir
 
Speed
knots
Gust
knots
hPa Trend Height
m
Period
s
Dir
28/11:30pm 22.9 NE 10 13 1016.9 - 0.0 - - 10 - - - -
28/11:00pm 23.3 NE 11 15 1017.2 - 0.0 - - 10 - - - -
28/10:30pm 23.7 NE 11 17 1017.3 - 0.0 - - 10 - - - -
28/10:00pm 24.0 NE 11 15 1017.2 - 0.0 - - 10 - - - -
28/09:30pm 24.5 NE 11 16 1017.2 - 0.0 - - 10 - - - -
28/09:00pm 24.8 NE 9 12 1017.1 - 0.0 - - 10 - - - -
28/08:30pm 25.1 NE 9 14 1016.8 - 0.0 - - 10 - - - -
28/08:00pm 25.6 NE 8 10 1016.5 - 0.0 - - 10 - - - -
28/07:30pm 25.9 NE 7 9 1016.1 - 0.0 - - 10 - - - -
28/07:00pm 26.5 NE 7 9 1015.6 - 0.0 - - 10 - - - -
28/06:30pm 27.3 NE 8 11 1015.4 - 0.0 - - 10 - - - -
28/06:00pm 28.1 NE 9 13 1015.1 - 0.0 - - 10 - - - -
28/05:30pm 29.3 NE 10 15 1014.8 - 0.0 - - 10 - - - -
28/05:00pm 29.5 NE 13 19 1014.5 - 0.0 - - 10 - - - -
28/04:30pm 30.0 NE 11 16 1014.3 - 0.0 - - 10 - - - -
28/04:00pm 30.5 NE 13 18 1014.2 - 0.0 - - 10 - - - -
28/03:30pm 30.2 NE 12 17 1014.0 - 0.0 - - 10 - - - -
28/03:00pm 30.8 NE 12 19 1014.2 - 0.0 - - 10 - - - -
28/02:30pm 30.3 NE 11 16 1014.5 - 0.0 - - 10 - - - -
28/02:00pm 30.5 NE 13 19 1014.8 - 0.0 - - 10 - - - -
28/01:30pm 30.4 ENE 12 16 1015.2 - 0.0 - - 10 - - - -
28/01:00pm 29.5 ENE 15 20 1015.8 - 0.0 - - 10 - - - -
28/12:30pm 28.7 ENE 13 20 1016.0 - 0.0 - - 10 - - - -
28/12:00pm 29.3 NE 12 19 1016.3 - 0.0 - - 10 - - - -
28/11:30am 27.8 NE 14 22 1016.9 - 0.0 - - 10 - - - -
28/11:00am 27.0 NE 14 19 1017.1 - 0.0 - - 10 - - - -
28/10:30am 27.2 NE 15 20 1017.3 - 0.0 - - 10 - - - -
28/10:00am 25.8 ENE 16 22 1017.4 - 0.0 - - 10 - - - -
28/09:30am 24.9 ENE 15 22 1017.7 - 0.0 - - 10 - - - -
28/09:00am 23.8 ENE 15 23 1017.6 - 0.0 - - 10 - - - -
28/08:46am 23.2 ENE 15 26 1017.7 - 0.0 - - 10 - - - -
28/08:30am 22.5 ENE 16 21 1017.6 - 0.0 - - 10 - - - -
28/08:00am 21.6 ENE 14 21 1017.5 - 0.0 - - 10 - - - -
28/07:30am 20.8 ENE 10 14 1017.5 - 0.0 - Partly cloudy 10 - - - -
28/07:00am 19.5 ENE 7 9 1017.3 - 0.0 - - 10 - - - -
28/06:30am 19.7 ENE 6 9 1017.0 - 0.0 - - 10 - - - -
28/06:00am 20.1 NE 7 8 1016.8 - 0.0 - - 10 - - - -
28/05:30am 19.7 ENE 6 8 1016.3 - 0.0 - - 10 - - - -
28/05:00am 19.8 ENE 6 9 1016.2 - 0.0 - Partly cloudy 10 - - - -
28/04:30am 19.0 E 4 5 1016.1 - 0.0 - - 10 - - - -
28/04:00am 19.5 ENE 4 5 1015.9 - 0.0 - - 10 - - - -
28/03:30am 19.7 ENE 5 7 1016.1 - 0.0 - - 10 - - - -
28/03:00am 20.4 ENE 5 6 1016.4 - 0.0 - - 10 - - - -
28/02:30am 20.6 ENE 5 7 1016.5 - 0.0 - - 10 - - - -
28/02:00am 20.6 ENE 5 6 1016.6 - 0.0 - - 10 - - - -
28/01:30am 20.6 ENE 5 6 1016.7 - 0.0 - - 10 - - - -
28/01:00am 20.7 NE 3 4 1016.4 - 0.0 - - 9 - - - -
28/12:30am 21.3 ENE 4 5 1016.4 - 0.0 - - 10 - - - -
28/12:00am 22.1 NE 5 7 1016.6 - 0.0 - - 10 - - - -

Other Formats:

Comma delimited format used in spreadsheet applications
http://www.bom.gov.au/fwo/IDD60701/IDD60701.95142.axf

JavaScript Object Notation format (JSON) in row-major order
http://www.bom.gov.au/fwo/IDD60701/IDD60701.95142.json